sensor_id;sensor_type;location;lat;lon;timestamp;pressure;altitude;pressure_sealevel;temperature;humidity
64876;BME280;51369;49.862;9.908;2024-01-06T00:02:11;97121.50;;;4.30;83.12
64876;BME280;51369;49.862;9.908;2024-01-06T00:04:36;97118.00;;;4.28;83.81
64876;BME280;51369;49.862;9.908;2024-01-06T00:07:02;97121.72;;;4.23;83.19
64876;BME280;51369;49.862;9.908;2024-01-06T00:09:27;97122.00;;;4.16;83.18
64876;BME280;51369;49.862;9.908;2024-01-06T00:11:52;97118.63;;;4.11;83.22
64876;BME280;51369;49.862;9.908;2024-01-06T00:14:18;97111.66;;;4.07;83.64
64876;BME280;51369;49.862;9.908;2024-01-06T00:16:43;97114.44;;;4.04;83.48
64876;BME280;51369;49.862;9.908;2024-01-06T00:19:08;97118.03;;;4.03;84.46
64876;BME280;51369;49.862;9.908;2024-01-06T00:21:34;97118.97;;;4.02;83.66
64876;BME280;51369;49.862;9.908;2024-01-06T00:23:59;97112.00;;;3.98;84.33
64876;BME280;51369;49.862;9.908;2024-01-06T00:26:25;97120.06;;;3.96;84.05
64876;BME280;51369;49.862;9.908;2024-01-06T00:28:50;97108.63;;;3.92;84.06
64876;BME280;51369;49.862;9.908;2024-01-06T00:31:16;97112.28;;;3.90;84.33
64876;BME280;51369;49.862;9.908;2024-01-06T00:33:42;97109.72;;;3.87;84.55
64876;BME280;51369;49.862;9.908;2024-01-06T00:36:08;97105.19;;;3.89;84.17
64876;BME280;51369;49.862;9.908;2024-01-06T00:38:34;97109.78;;;3.85;84.42
64876;BME280;51369;49.862;9.908;2024-01-06T00:41:03;97108.78;;;3.88;84.29
64876;BME280;51369;49.862;9.908;2024-01-06T00:43:28;97111.41;;;3.89;84.95
64876;BME280;51369;49.862;9.908;2024-01-06T00:45:54;97120.34;;;3.88;84.02
64876;BME280;51369;49.862;9.908;2024-01-06T00:48:19;97128.34;;;3.88;85.10
64876;BME280;51369;49.862;9.908;2024-01-06T00:50:44;97123.06;;;3.87;85.34
64876;BME280;51369;49.862;9.908;2024-01-06T00:53:11;97127.53;;;3.86;84.65
64876;BME280;51369;49.862;9.908;2024-01-06T00:55:37;97122.25;;;3.85;85.70
64876;BME280;51369;49.862;9.908;2024-01-06T00:58:02;97130.38;;;3.82;85.68
64876;BME280;51369;49.862;9.908;2024-01-06T01:00:28;97134.06;;;3.78;85.51
64876;BME280;51369;49.862;9.908;2024-01-06T01:02:53;97141.22;;;3.77;86.18
64876;BME280;51369;49.862;9.908;2024-01-06T01:05:19;97134.13;;;3.76;85.49
64876;BME280;51369;49.862;9.908;2024-01-06T01:07:44;97141.28;;;3.76;85.82
64876;BME280;51369;49.862;9.908;2024-01-06T01:10:10;97144.75;;;3.78;85.48
64876;BME280;51369;49.862;9.908;2024-01-06T01:12:35;97149.38;;;3.73;84.94
64876;BME280;51369;49.862;9.908;2024-01-06T01:15:01;97152.22;;;3.68;85.25
64876;BME280;51369;49.862;9.908;2024-01-06T01:17:26;97155.00;;;3.65;84.52
64876;BME280;51369;49.862;9.908;2024-01-06T01:19:52;97148.00;;;3.61;84.91
64876;BME280;51369;49.862;9.908;2024-01-06T01:22:17;97156.06;;;3.59;85.76
64876;BME280;51369;49.862;9.908;2024-01-06T01:24:43;97155.31;;;3.56;85.01
64876;BME280;51369;49.862;9.908;2024-01-06T01:27:08;97166.09;;;3.53;85.40
64876;BME280;51369;49.862;9.908;2024-01-06T01:29:34;97157.25;;;3.51;84.95
64876;BME280;51369;49.862;9.908;2024-01-06T01:32:00;97164.44;;;3.49;84.71
64876;BME280;51369;49.862;9.908;2024-01-06T01:34:25;97166.38;;;3.45;84.94
64876;BME280;51369;49.862;9.908;2024-01-06T01:36:50;97170.84;;;3.45;84.75
64876;BME280;51369;49.862;9.908;2024-01-06T01:39:17;97174.53;;;3.41;84.84
64876;BME280;51369;49.862;9.908;2024-01-06T01:41:42;97178.06;;;3.41;85.23
64876;BME280;51369;49.862;9.908;2024-01-06T01:44:08;97171.91;;;3.39;85.35
64876;BME280;51369;49.862;9.908;2024-01-06T01:46:33;97180.84;;;3.38;85.25
64876;BME280;51369;49.862;9.908;2024-01-06T01:49:01;97189.81;;;3.36;84.91
64876;BME280;51369;49.862;9.908;2024-01-06T01:51:29;97199.72;;;3.32;84.84
64876;BME280;51369;49.862;9.908;2024-01-06T01:53:57;97202.44;;;3.31;84.94
64876;BME280;51369;49.862;9.908;2024-01-06T01:56:23;97203.41;;;3.28;84.29
64876;BME280;51369;49.862;9.908;2024-01-06T01:58:49;97205.31;;;3.24;84.98
64876;BME280;51369;49.862;9.908;2024-01-06T02:01:15;97204.47;;;3.22;85.41
64876;BME280;51369;49.862;9.908;2024-01-06T02:03:41;97204.59;;;3.19;84.89
64876;BME280;51369;49.862;9.908;2024-01-06T02:06:09;97209.09;;;3.17;84.96
64876;BME280;51369;49.862;9.908;2024-01-06T02:08:35;97202.06;;;3.15;84.48
64876;BME280;51369;49.862;9.908;2024-01-06T02:11:00;97202.97;;;3.14;85.01
64876;BME280;51369;49.862;9.908;2024-01-06T02:13:35;97207.50;;;3.12;85.64
64876;BME280;51369;49.862;9.908;2024-01-06T02:16:02;97194.22;;;3.10;84.61
64876;BME280;51369;49.862;9.908;2024-01-06T02:18:27;97200.50;;;3.08;85.47
64876;BME280;51369;49.862;9.908;2024-01-06T02:20:55;97203.19;;;3.08;85.00
64876;BME280;51369;49.862;9.908;2024-01-06T02:23:22;97203.22;;;3.06;85.67
64876;BME280;51369;49.862;9.908;2024-01-06T02:25:48;97207.69;;;3.06;85.59
64876;BME280;51369;49.862;9.908;2024-01-06T02:28:13;97199.75;;;3.04;85.40
64876;BME280;51369;49.862;9.908;2024-01-06T02:30:38;97200.66;;;3.03;85.97
64876;BME280;51369;49.862;9.908;2024-01-06T02:33:04;97194.44;;;3.03;86.01
64876;BME280;51369;49.862;9.908;2024-01-06T02:35:30;97206.00;;;3.03;86.27
64876;BME280;51369;49.862;9.908;2024-01-06T02:37:55;97197.06;;;3.04;85.93
64876;BME280;51369;49.862;9.908;2024-01-06T02:40:21;97205.06;;;3.04;85.93
64876;BME280;51369;49.862;9.908;2024-01-06T02:42:46;97205.94;;;3.05;85.30
64876;BME280;51369;49.862;9.908;2024-01-06T02:45:11;97203.28;;;3.05;85.86
64876;BME280;51369;49.862;9.908;2024-01-06T02:47:37;97211.28;;;3.05;86.14
64876;BME280;51369;49.862;9.908;2024-01-06T02:50:03;97221.94;;;3.05;86.40
64876;BME280;51369;49.862;9.908;2024-01-06T02:52:29;97228.16;;;3.05;85.91
64876;BME280;51369;49.862;9.908;2024-01-06T02:54:54;97226.41;;;3.04;85.80
64876;BME280;51369;49.862;9.908;2024-01-06T02:57:20;97226.41;;;3.04;85.86
64876;BME280;51369;49.862;9.908;2024-01-06T02:59:45;97210.34;;;3.06;86.32
64876;BME280;51369;49.862;9.908;2024-01-06T03:02:11;97228.09;;;3.07;85.53
64876;BME280;51369;49.862;9.908;2024-01-06T03:04:36;97214.72;;;3.08;86.04
64876;BME280;51369;49.862;9.908;2024-01-06T03:07:02;97226.31;;;3.07;86.17
64876;BME280;51369;49.862;9.908;2024-01-06T03:09:27;97235.19;;;3.08;86.83
64876;BME280;51369;49.862;9.908;2024-01-06T03:11:53;97236.88;;;3.10;86.26
64876;BME280;51369;49.862;9.908;2024-01-06T03:14:18;97229.69;;;3.12;87.49
64876;BME280;51369;49.862;9.908;2024-01-06T03:16:43;97226.97;;;3.14;86.54
64876;BME280;51369;49.862;9.908;2024-01-06T03:19:09;97220.69;;;3.16;87.10
64876;BME280;51369;49.862;9.908;2024-01-06T03:21:34;97221.41;;;3.21;88.09
64876;BME280;51369;49.862;9.908;2024-01-06T03:24:00;97215.06;;;3.25;88.12
64876;BME280;51369;49.862;9.908;2024-01-06T03:26:25;97217.63;;;3.29;88.17
64876;BME280;51369;49.862;9.908;2024-01-06T03:28:51;97222.84;;;3.32;88.06
64876;BME280;51369;49.862;9.908;2024-01-06T03:31:16;97221.00;;;3.34;88.14
64876;BME280;51369;49.862;9.908;2024-01-06T03:33:43;97227.16;;;3.36;88.03
64876;BME280;51369;49.862;9.908;2024-01-06T03:36:09;97218.16;;;3.40;88.03
64876;BME280;51369;49.862;9.908;2024-01-06T03:38:34;97218.03;;;3.43;88.18
64876;BME280;51369;49.862;9.908;2024-01-06T03:40:59;97231.16;;;3.49;88.27
64876;BME280;51369;49.862;9.908;2024-01-06T03:43:25;97227.50;;;3.51;88.93
64876;BME280;51369;49.862;9.908;2024-01-06T03:45:50;97228.34;;;3.53;87.63
64876;BME280;51369;49.862;9.908;2024-01-06T03:48:16;97235.47;;;3.53;88.67
64876;BME280;51369;49.862;9.908;2024-01-06T03:50:41;97231.78;;;3.57;88.02
64876;BME280;51369;49.862;9.908;2024-01-06T03:53:06;97238.91;;;3.56;87.78
64876;BME280;51369;49.862;9.908;2024-01-06T03:55:33;97236.19;;;3.58;87.54
64876;BME280;51369;49.862;9.908;2024-01-06T03:57:58;97229.97;;;3.57;87.59
64876;BME280;51369;49.862;9.908;2024-01-06T04:00:25;97237.16;;;3.55;87.02
64876;BME280;51369;49.862;9.908;2024-01-06T04:02:51;97238.94;;;3.55;86.93
64876;BME280;51369;49.862;9.908;2024-01-06T04:05:16;97242.66;;;3.51;87.24
64876;BME280;51369;49.862;9.908;2024-01-06T04:07:42;97237.50;;;3.46;86.54
64876;BME280;51369;49.862;9.908;2024-01-06T04:10:07;97234.88;;;3.45;87.11
64876;BME280;51369;49.862;9.908;2024-01-06T04:12:33;97235.78;;;3.44;86.55
64876;BME280;51369;49.862;9.908;2024-01-06T04:14:58;97234.94;;;3.43;86.13
64876;BME280;51369;49.862;9.908;2024-01-06T04:17:24;97242.06;;;3.43;86.44
64876;BME280;51369;49.862;9.908;2024-01-06T04:19:51;97231.44;;;3.41;86.66
64876;BME280;51369;49.862;9.908;2024-01-06T04:22:17;97242.06;;;3.43;87.24
64876;BME280;51369;49.862;9.908;2024-01-06T04:24:42;97241.09;;;3.45;86.58
64876;BME280;51369;49.862;9.908;2024-01-06T04:27:07;97243.63;;;3.48;87.43
64876;BME280;51369;49.862;9.908;2024-01-06T04:29:33;97244.44;;;3.50;87.79
64876;BME280;51369;49.862;9.908;2024-01-06T04:31:58;97245.16;;;3.55;87.20
64876;BME280;51369;49.862;9.908;2024-01-06T04:34:24;97246.81;;;3.59;88.13
64876;BME280;51369;49.862;9.908;2024-01-06T04:36:49;97243.13;;;3.64;87.50
64876;BME280;51369;49.862;9.908;2024-01-06T04:39:15;97254.56;;;3.67;88.02
64876;BME280;51369;49.862;9.908;2024-01-06T04:41:40;97250.03;;;3.69;87.60
64876;BME280;51369;49.862;9.908;2024-01-06T04:44:06;97255.28;;;3.72;87.43
64876;BME280;51369;49.862;9.908;2024-01-06T04:46:31;97250.88;;;3.71;87.77
64876;BME280;51369;49.862;9.908;2024-01-06T04:48:56;97242.75;;;3.74;87.78
64876;BME280;51369;49.862;9.908;2024-01-06T04:51:22;97246.31;;;3.75;86.96
64876;BME280;51369;49.862;9.908;2024-01-06T04:53:47;97245.38;;;3.76;87.28
64876;BME280;51369;49.862;9.908;2024-01-06T04:56:13;97240.97;;;3.75;86.98
64876;BME280;51369;49.862;9.908;2024-01-06T04:58:38;97241.78;;;3.77;87.62
64876;BME280;51369;49.862;9.908;2024-01-06T05:01:04;97241.72;;;3.78;87.39
64876;BME280;51369;49.862;9.908;2024-01-06T05:03:29;97234.66;;;3.77;87.78
64876;BME280;51369;49.862;9.908;2024-01-06T05:05:55;97239.97;;;3.77;87.55
64876;BME280;51369;49.862;9.908;2024-01-06T05:08:20;97242.69;;;3.76;87.02
64876;BME280;51369;49.862;9.908;2024-01-06T05:10:48;97241.84;;;3.75;86.49
64876;BME280;51369;49.862;9.908;2024-01-06T05:13:14;97240.09;;;3.74;86.41
64876;BME280;51369;49.862;9.908;2024-01-06T05:15:39;97236.53;;;3.74;86.86
64876;BME280;51369;49.862;9.908;2024-01-06T05:18:05;97245.53;;;3.71;86.78
64876;BME280;51369;49.862;9.908;2024-01-06T05:20:30;97249.00;;;3.73;87.16
64876;BME280;51369;49.862;9.908;2024-01-06T05:22:55;97252.63;;;3.72;86.98
64876;BME280;51369;49.862;9.908;2024-01-06T05:25:21;97249.94;;;3.72;87.42
64876;BME280;51369;49.862;9.908;2024-01-06T05:27:46;97249.88;;;3.74;87.74
64876;BME280;51369;49.862;9.908;2024-01-06T05:30:12;97257.84;;;3.75;87.13
64876;BME280;51369;49.862;9.908;2024-01-06T05:32:37;97247.06;;;3.78;87.55
64876;BME280;51369;49.862;9.908;2024-01-06T05:35:03;97254.97;;;3.81;87.59
64876;BME280;51369;49.862;9.908;2024-01-06T05:37:31;97252.31;;;3.81;88.12
64876;BME280;51369;49.862;9.908;2024-01-06T05:39:57;97264.81;;;3.79;87.00
64876;BME280;51369;49.862;9.908;2024-01-06T05:42:26;97272.00;;;3.77;87.45
64876;BME280;51369;49.862;9.908;2024-01-06T05:44:52;97272.94;;;3.76;87.22
64876;BME280;51369;49.862;9.908;2024-01-06T05:47:18;97268.53;;;3.75;87.02
64876;BME280;51369;49.862;9.908;2024-01-06T05:49:43;97274.78;;;3.74;86.81
64876;BME280;51369;49.862;9.908;2024-01-06T05:52:11;97274.75;;;3.76;86.52
64876;BME280;51369;49.862;9.908;2024-01-06T05:54:40;97278.31;;;3.75;86.73
64876;BME280;51369;49.862;9.908;2024-01-06T05:57:06;97285.38;;;3.77;87.70
64876;BME280;51369;49.862;9.908;2024-01-06T05:59:34;97293.38;;;3.77;86.57
64876;BME280;51369;49.862;9.908;2024-01-06T06:01:59;97294.16;;;3.81;87.12
64876;BME280;51369;49.862;9.908;2024-01-06T06:04:25;97302.09;;;3.82;87.15
64876;BME280;51369;49.862;9.908;2024-01-06T06:06:50;97305.59;;;3.84;87.71
64876;BME280;51369;49.862;9.908;2024-01-06T06:09:16;97302.00;;;3.85;87.55
64876;BME280;51369;49.862;9.908;2024-01-06T06:11:41;97313.56;;;3.86;87.55
64876;BME280;51369;49.862;9.908;2024-01-06T06:14:06;97304.63;;;3.87;86.81
64876;BME280;51369;49.862;9.908;2024-01-06T06:16:32;97310.84;;;3.87;86.65
64876;BME280;51369;49.862;9.908;2024-01-06T06:18:57;97312.53;;;3.90;86.79
64876;BME280;51369;49.862;9.908;2024-01-06T06:21:23;97313.34;;;3.92;87.18
64876;BME280;51369;49.862;9.908;2024-01-06T06:23:49;97316.84;;;3.94;87.00
64876;BME280;51369;49.862;9.908;2024-01-06T06:26:14;97322.09;;;3.97;87.93
64876;BME280;51369;49.862;9.908;2024-01-06T06:28:40;97328.25;;;3.99;87.02
64876;BME280;51369;49.862;9.908;2024-01-06T06:31:06;97330.88;;;4.01;86.63
64876;BME280;51369;49.862;9.908;2024-01-06T06:33:31;97334.41;;;4.01;87.11
64876;BME280;51369;49.862;9.908;2024-01-06T06:35:58;97337.94;;;4.02;87.18
64876;BME280;51369;49.862;9.908;2024-01-06T06:38:25;97343.34;;;4.00;86.37
64876;BME280;51369;49.862;9.908;2024-01-06T06:40:50;97346.84;;;4.02;86.77
64876;BME280;51369;49.862;9.908;2024-01-06T06:43:17;97351.19;;;4.05;87.04
64876;BME280;51369;49.862;9.908;2024-01-06T06:45:42;97352.94;;;4.06;87.48
64876;BME280;51369;49.862;9.908;2024-01-06T06:48:07;97356.44;;;4.08;86.68
64876;BME280;51369;49.862;9.908;2024-01-06T06:50:33;97354.69;;;4.07;87.20
64876;BME280;51369;49.862;9.908;2024-01-06T06:52:59;97358.25;;;4.07;86.34
64876;BME280;51369;49.862;9.908;2024-01-06T06:55:24;97360.00;;;4.08;86.55
64876;BME280;51369;49.862;9.908;2024-01-06T06:57:49;97367.91;;;4.11;86.45
64876;BME280;51369;49.862;9.908;2024-01-06T07:00:15;97367.91;;;4.11;86.53
64876;BME280;51369;49.862;9.908;2024-01-06T07:02:42;97373.19;;;4.13;86.05
64876;BME280;51369;49.862;9.908;2024-01-06T07:05:08;97376.78;;;4.12;86.41
64876;BME280;51369;49.862;9.908;2024-01-06T07:07:33;97382.06;;;4.13;87.13
64876;BME280;51369;49.862;9.908;2024-01-06T07:10:01;97378.44;;;4.16;86.31
64876;BME280;51369;49.862;9.908;2024-01-06T07:12:27;97378.44;;;4.16;86.27
64876;BME280;51369;49.862;9.908;2024-01-06T07:14:52;97376.63;;;4.16;86.45
64876;BME280;51369;49.862;9.908;2024-01-06T07:17:18;97375.59;;;4.20;87.19
64876;BME280;51369;49.862;9.908;2024-01-06T07:19:43;97378.22;;;4.22;87.37
64876;BME280;51369;49.862;9.908;2024-01-06T07:22:09;97378.19;;;4.23;86.45
64876;BME280;51369;49.862;9.908;2024-01-06T07:24:34;97378.13;;;4.25;86.57
64876;BME280;51369;49.862;9.908;2024-01-06T07:27:01;97378.94;;;4.27;86.41
64876;BME280;51369;49.862;9.908;2024-01-06T07:29:28;97383.25;;;4.31;87.42
64876;BME280;51369;49.862;9.908;2024-01-06T07:31:53;97388.56;;;4.33;87.29
64876;BME280;51369;49.862;9.908;2024-01-06T07:34:18;97397.44;;;4.33;87.21
64876;BME280;51369;49.862;9.908;2024-01-06T07:36:44;97410.69;;;4.36;86.90
64876;BME280;51369;49.862;9.908;2024-01-06T07:39:09;97398.25;;;4.35;86.88
64876;BME280;51369;49.862;9.908;2024-01-06T07:41:34;97403.59;;;4.35;85.97
64876;BME280;51369;49.862;9.908;2024-01-06T07:44:00;97405.31;;;4.38;86.21
64876;BME280;51369;49.862;9.908;2024-01-06T07:46:28;97409.69;;;4.40;86.89
64876;BME280;51369;49.862;9.908;2024-01-06T07:48:54;97413.16;;;4.42;87.15
64876;BME280;51369;49.862;9.908;2024-01-06T07:51:19;97423.81;;;4.44;87.41
64876;BME280;51369;49.862;9.908;2024-01-06T07:53:45;97426.38;;;4.47;87.06
64876;BME280;51369;49.862;9.908;2024-01-06T07:56:10;97426.31;;;4.48;87.11
64876;BME280;51369;49.862;9.908;2024-01-06T07:58:35;97432.50;;;4.50;86.96
64876;BME280;51369;49.862;9.908;2024-01-06T08:01:00;97439.53;;;4.53;86.61
64876;BME280;51369;49.862;9.908;2024-01-06T08:03:26;97434.97;;;4.56;86.69
64876;BME280;51369;49.862;9.908;2024-01-06T08:05:52;97434.84;;;4.60;86.45
64876;BME280;51369;49.862;9.908;2024-01-06T08:08:18;97438.28;;;4.63;87.36
64876;BME280;51369;49.862;9.908;2024-01-06T08:10:44;97456.03;;;4.66;86.96
64876;BME280;51369;49.862;9.908;2024-01-06T08:13:09;97450.59;;;4.69;87.42
64876;BME280;51369;49.862;9.908;2024-01-06T08:15:34;97455.81;;;4.72;86.74
64876;BME280;51369;49.862;9.908;2024-01-06T08:18:00;97455.72;;;4.75;86.59
64876;BME280;51369;49.862;9.908;2024-01-06T08:20:25;97460.09;;;4.77;86.77
64876;BME280;51369;49.862;9.908;2024-01-06T08:22:51;97458.25;;;4.79;87.35
64876;BME280;51369;49.862;9.908;2024-01-06T08:25:16;97457.31;;;4.80;86.31
64876;BME280;51369;49.862;9.908;2024-01-06T08:27:45;97459.00;;;4.83;86.49
64876;BME280;51369;49.862;9.908;2024-01-06T08:30:11;97460.66;;;4.87;86.65
64876;BME280;51369;49.862;9.908;2024-01-06T08:32:36;97461.47;;;4.89;86.50
64876;BME280;51369;49.862;9.908;2024-01-06T08:35:02;97459.56;;;4.93;87.09
64876;BME280;51369;49.862;9.908;2024-01-06T08:37:29;97462.13;;;4.96;87.15
64876;BME280;51369;49.862;9.908;2024-01-06T08:39:54;97462.91;;;4.99;86.85
64876;BME280;51369;49.862;9.908;2024-01-06T08:42:19;97464.59;;;5.02;86.23
64876;BME280;51369;49.862;9.908;2024-01-06T08:44:45;97468.03;;;5.05;86.98
64876;BME280;51369;49.862;9.908;2024-01-06T08:47:11;97475.94;;;5.08;86.21
64876;BME280;51369;49.862;9.908;2024-01-06T08:49:37;97478.50;;;5.11;86.03
64876;BME280;51369;49.862;9.908;2024-01-06T08:52:02;97479.28;;;5.15;86.74
64876;BME280;51369;49.862;9.908;2024-01-06T08:54:28;97488.06;;;5.18;86.24
64876;BME280;51369;49.862;9.908;2024-01-06T08:56:54;97475.44;;;5.22;86.60
64876;BME280;51369;49.862;9.908;2024-01-06T08:59:19;97487.81;;;5.24;86.26
64876;BME280;51369;49.862;9.908;2024-01-06T09:01:45;97484.09;;;5.29;86.49
64876;BME280;51369;49.862;9.908;2024-01-06T09:04:11;97494.66;;;5.33;86.43
64876;BME280;51369;49.862;9.908;2024-01-06T09:06:38;97494.47;;;5.38;85.90
64876;BME280;51369;49.862;9.908;2024-01-06T09:09:03;97505.09;;;5.41;86.11
64876;BME280;51369;49.862;9.908;2024-01-06T09:11:28;97498.69;;;5.45;86.20
64876;BME280;51369;49.862;9.908;2024-01-06T09:13:54;97503.00;;;5.49;86.46
64876;BME280;51369;49.862;9.908;2024-01-06T09:16:19;97510.91;;;5.52;86.10
64876;BME280;51369;49.862;9.908;2024-01-06T09:18:45;97507.25;;;5.54;86.09
64876;BME280;51369;49.862;9.908;2024-01-06T09:21:10;97511.63;;;5.57;85.99
64876;BME280;51369;49.862;9.908;2024-01-06T09:23:35;97507.97;;;5.60;85.25
64876;BME280;51369;49.862;9.908;2024-01-06T09:26:01;97520.38;;;5.62;85.47
64876;BME280;51369;49.862;9.908;2024-01-06T09:28:26;97506.91;;;5.64;85.21
64876;BME280;51369;49.862;9.908;2024-01-06T09:30:52;97513.03;;;5.67;85.31
64876;BME280;51369;49.862;9.908;2024-01-06T09:33:22;97519.09;;;5.72;84.53
64876;BME280;51369;49.862;9.908;2024-01-06T09:35:47;97514.44;;;5.77;84.65
64876;BME280;51369;49.862;9.908;2024-01-06T09:38:13;97520.50;;;5.82;84.84
64876;BME280;51369;49.862;9.908;2024-01-06T09:40:42;97520.38;;;5.85;85.08
64876;BME280;51369;49.862;9.908;2024-01-06T09:43:11;97515.75;;;5.91;84.68
64876;BME280;51369;49.862;9.908;2024-01-06T09:45:37;97517.41;;;5.95;84.38
64876;BME280;51369;49.862;9.908;2024-01-06T09:48:13;97520.00;;;5.96;84.48
64876;BME280;51369;49.862;9.908;2024-01-06T09:50:43;97514.47;;;6.01;84.20
64876;BME280;51369;49.862;9.908;2024-01-06T09:53:11;97510.88;;;6.02;83.91
64876;BME280;51369;49.862;9.908;2024-01-06T09:55:37;97516.06;;;6.06;84.16
64876;BME280;51369;49.862;9.908;2024-01-06T09:58:04;97515.06;;;6.09;84.15
64876;BME280;51369;49.862;9.908;2024-01-06T10:00:30;97517.56;;;6.13;83.94
64876;BME280;51369;49.862;9.908;2024-01-06T10:02:56;97522.81;;;6.16;84.42
64876;BME280;51369;49.862;9.908;2024-01-06T10:05:21;97520.00;;;6.19;84.00
64876;BME280;51369;49.862;9.908;2024-01-06T10:07:47;97517.22;;;6.23;84.03
64876;BME280;51369;49.862;9.908;2024-01-06T10:10:14;97512.53;;;6.28;84.18
64876;BME280;51369;49.862;9.908;2024-01-06T10:12:40;97512.34;;;6.32;84.64
64876;BME280;51369;49.862;9.908;2024-01-06T10:15:07;97515.72;;;6.37;84.29
64876;BME280;51369;49.862;9.908;2024-01-06T10:17:35;97513.69;;;6.44;84.17
64876;BME280;51369;49.862;9.908;2024-01-06T10:20:02;97517.00;;;6.50;84.40
64876;BME280;51369;49.862;9.908;2024-01-06T10:22:28;97515.00;;;6.56;84.22
64876;BME280;51369;49.862;9.908;2024-01-06T10:24:54;97512.19;;;6.59;83.80
64876;BME280;51369;49.862;9.908;2024-01-06T10:27:21;97521.78;;;6.64;83.81
64876;BME280;51369;49.862;9.908;2024-01-06T10:29:47;97518.06;;;6.68;83.44
64876;BME280;51369;49.862;9.908;2024-01-06T10:32:12;97523.22;;;6.73;82.96
64876;BME280;51369;49.862;9.908;2024-01-06T10:34:38;97528.34;;;6.79;83.12
64876;BME280;51369;49.862;9.908;2024-01-06T10:37:03;97536.19;;;6.83;83.27
64876;BME280;51369;49.862;9.908;2024-01-06T10:39:29;97532.41;;;6.89;82.95
64876;BME280;51369;49.862;9.908;2024-01-06T10:41:55;97522.31;;;6.94;82.83
64876;BME280;51369;49.862;9.908;2024-01-06T10:44:21;97521.19;;;7.00;82.68
64876;BME280;51369;49.862;9.908;2024-01-06T10:46:47;97516.44;;;7.06;82.42
64876;BME280;51369;49.862;9.908;2024-01-06T10:49:14;97529.53;;;7.14;82.55
64876;BME280;51369;49.862;9.908;2024-01-06T10:51:40;97534.63;;;7.20;82.50
64876;BME280;51369;49.862;9.908;2024-01-06T10:54:06;97532.63;;;7.25;82.33
64876;BME280;51369;49.862;9.908;2024-01-06T10:56:37;97528.72;;;7.32;82.17
64876;BME280;51369;49.862;9.908;2024-01-06T10:59:04;97531.97;;;7.40;82.00
64876;BME280;51369;49.862;9.908;2024-01-06T11:01:30;97526.38;;;7.45;81.92
64876;BME280;51369;49.862;9.908;2024-01-06T11:03:56;97534.25;;;7.49;81.61
64876;BME280;51369;49.862;9.908;2024-01-06T11:06:22;97530.56;;;7.52;80.94
64876;BME280;51369;49.862;9.908;2024-01-06T11:09:04;97531.50;;;7.51;80.09
64876;BME280;51369;49.862;9.908;2024-01-06T11:11:32;97529.53;;;7.55;79.85
64876;BME280;51369;49.862;9.908;2024-01-06T11:14:17;97525.03;;;7.55;79.40
64876;BME280;51369;49.862;9.908;2024-01-06T11:16:42;97522.03;;;7.63;78.94
64876;BME280;51369;49.862;9.908;2024-01-06T11:22:18;97525.75;;;7.79;79.07
64876;BME280;51369;49.862;9.908;2024-01-06T11:24:48;97522.66;;;7.88;78.89
64876;BME280;51369;49.862;9.908;2024-01-06T11:27:18;97519.75;;;7.93;78.33
64876;BME280;51369;49.862;9.908;2024-01-06T11:29:44;97511.56;;;7.96;77.88
64876;BME280;51369;49.862;9.908;2024-01-06T11:32:29;97511.56;;;7.96;77.75
64876;BME280;51369;49.862;9.908;2024-01-06T11:34:56;97517.66;;;7.99;77.07
64876;BME280;51369;49.862;9.908;2024-01-06T11:40:15;97511.06;;;8.06;76.64
64876;BME280;51369;49.862;9.908;2024-01-06T11:43:08;97508.16;;;8.11;76.27
64876;BME280;51369;49.862;9.908;2024-01-06T11:45:34;97507.00;;;8.16;76.16
64876;BME280;51369;49.862;9.908;2024-01-06T11:48:05;97497.84;;;8.21;76.57
64876;BME280;51369;49.862;9.908;2024-01-06T11:50:32;97502.06;;;8.26;76.49
64876;BME280;51369;49.862;9.908;2024-01-06T11:52:58;97511.66;;;8.32;76.32
64876;BME280;51369;49.862;9.908;2024-01-06T11:55:25;97505.16;;;8.37;76.29
64876;BME280;51369;49.862;9.908;2024-01-06T11:57:54;97509.50;;;8.40;76.51
64876;BME280;51369;49.862;9.908;2024-01-06T12:00:19;97503.13;;;8.42;76.27
64876;BME280;51369;49.862;9.908;2024-01-06T12:02:45;97502.16;;;8.43;75.82
64876;BME280;51369;49.862;9.908;2024-01-06T12:05:15;97499.56;;;8.42;75.86
64876;BME280;51369;49.862;9.908;2024-01-06T12:07:41;97497.81;;;8.41;75.78
64876;BME280;51369;49.862;9.908;2024-01-06T12:10:08;97493.53;;;8.37;74.98
64876;BME280;51369;49.862;9.908;2024-01-06T12:12:33;97493.66;;;8.34;75.31
64876;BME280;51369;49.862;9.908;2024-01-06T12:14:59;97493.84;;;8.29;75.74
64876;BME280;51369;49.862;9.908;2024-01-06T12:17:29;97493.13;;;8.26;75.18
64876;BME280;51369;49.862;9.908;2024-01-06T12:19:55;97495.09;;;8.22;75.43
64876;BME280;51369;49.862;9.908;2024-01-06T12:22:20;97494.22;;;8.22;75.93
64876;BME280;51369;49.862;9.908;2024-01-06T12:24:49;97498.72;;;8.21;75.39
64876;BME280;51369;49.862;9.908;2024-01-06T12:27:14;97491.69;;;8.19;74.99
64876;BME280;51369;49.862;9.908;2024-01-06T12:29:41;97496.25;;;8.16;75.03
64876;BME280;51369;49.862;9.908;2024-01-06T12:32:07;97500.81;;;8.14;75.06
64876;BME280;51369;49.862;9.908;2024-01-06T12:34:34;97503.44;;;8.16;75.44
64876;BME280;51369;49.862;9.908;2024-01-06T12:37:00;97499.75;;;8.19;75.25
64876;BME280;51369;49.862;9.908;2024-01-06T12:39:28;97499.66;;;8.20;75.07
64876;BME280;51369;49.862;9.908;2024-01-06T12:41:56;97492.25;;;8.25;75.66
64876;BME280;51369;49.862;9.908;2024-01-06T12:44:22;97493.84;;;8.29;76.01
64876;BME280;51369;49.862;9.908;2024-01-06T12:46:49;97492.78;;;8.33;75.66
64876;BME280;51369;49.862;9.908;2024-01-06T12:49:14;97487.13;;;8.39;76.25
64876;BME280;51369;49.862;9.908;2024-01-06T12:51:40;97490.47;;;8.44;76.13
64876;BME280;51369;49.862;9.908;2024-01-06T12:54:05;97487.56;;;8.49;75.90
64876;BME280;51369;49.862;9.908;2024-01-06T12:56:30;97485.59;;;8.53;76.15
64876;BME280;51369;49.862;9.908;2024-01-06T12:58:56;97495.19;;;8.58;75.51
64876;BME280;51369;49.862;9.908;2024-01-06T13:01:22;97498.66;;;8.60;75.81
64876;BME280;51369;49.862;9.908;2024-01-06T13:03:48;97498.50;;;8.63;75.29
64876;BME280;51369;49.862;9.908;2024-01-06T13:06:13;97504.59;;;8.67;75.40
64876;BME280;51369;49.862;9.908;2024-01-06T13:08:41;97502.69;;;8.69;75.12
64876;BME280;51369;49.862;9.908;2024-01-06T13:11:07;97492.66;;;8.72;74.81